Time;durP1;ratioP1;P1;durP2;ratioP2;P2;SDS_P1;SDS_P2;PMS_P1;PMS_P2;Temp;Humidity;BMP_temperature;BMP_pressure;BME280_temperature;BME280_humidity;BME280_pressure;Samples;Min_cycle;Max_cycle;Signal;HPM_P1;HPM_P2
2023/07/11 00:00:17;;;;;;;;;;;;;;;18.79;100.00;99781.59;4992586;28;1945;-64
2023/07/11 00:02:45;;;;;;;;;;;;;;;18.61;100.00;99783.03;4993925;28;934;-64
2023/07/11 00:05:13;;;;;;;;;;;;;;;18.41;100.00;99782.59;4993866;28;980;-64
2023/07/11 00:07:40;;;;;;;;;;;;;;;18.17;100.00;99778.25;4993789;28;883;-64
2023/07/11 00:10:08;;;;;;;;;;;;;;;17.96;100.00;99787.41;4993790;28;1011;-64
2023/07/11 00:12:35;;;;;;;;;;;;;;;17.83;100.00;99781.09;4993612;28;1285;-64
2023/07/11 00:15:03;;;;;;;;;;;;;;;17.66;100.00;99775.63;4993925;28;1031;-64
2023/07/11 00:17:30;;;;;;;;;;;;;;;17.52;100.00;99787.31;4993677;28;1314;-64
2023/07/11 00:19:58;;;;;;;;;;;;;;;17.45;100.00;99773.56;4993461;28;1914;-64
2023/07/11 00:22:28;;;;;;;;;;;;;;;17.45;100.00;99781.94;4993787;28;819;-64
2023/07/11 00:24:55;;;;;;;;;;;;;;;17.47;100.00;99771.88;4993428;28;1157;-64
2023/07/11 00:27:23;;;;;;;;;;;;;;;17.52;100.00;99776.91;4993470;28;822;-64
2023/07/11 00:29:51;;;;;;;;;;;;;;;17.54;100.00;99780.03;4993335;28;886;-64
2023/07/11 00:32:18;;;;;;;;;;;;;;;17.60;100.00;99779.44;4993443;28;833;-65
2023/07/11 00:34:45;;;;;;;;;;;;;;;17.73;100.00;99769.00;4993227;28;831;-64
2023/07/11 00:37:12;;;;;;;;;;;;;;;17.82;100.00;99768.31;4993384;28;901;-64
2023/07/11 00:39:39;;;;;;;;;;;;;;;17.85;100.00;99776.59;4993206;28;1894;-64
2023/07/11 00:42:08;;;;;;;;;;;;;;;17.90;100.00;99764.03;4993098;28;859;-64
2023/07/11 00:44:50;;;;;;;;;;;;;;;17.97;100.00;99774.22;4993203;28;858;-64
2023/07/11 00:47:17;;;;;;;;;;;;;;;18.07;100.00;99759.06;4992572;28;799;-64
2023/07/11 00:49:45;;;;;;;;;;;;;;;18.13;100.00;99763.59;4993203;28;853;-65
2023/07/11 00:52:13;;;;;;;;;;;;;;;18.12;100.00;99759.25;4991843;28;1307;-64
2023/07/11 00:54:42;;;;;;;;;;;;;;;18.09;100.00;99760.19;4992987;28;819;-64
2023/07/11 00:57:09;;;;;;;;;;;;;;;18.09;100.00;99760.19;4992822;28;874;-64
2023/07/11 00:59:37;;;;;;;;;;;;;;;18.19;100.00;99760.22;4992773;28;1890;-64
2023/07/11 01:02:07;;;;;;;;;;;;;;;18.23;100.00;99760.88;4993070;28;850;-64
2023/07/11 01:04:35;;;;;;;;;;;;;;;18.23;100.00;99758.09;4992648;28;960;-64
2023/07/11 01:07:03;;;;;;;;;;;;;;;18.13;100.00;99760.03;4992904;28;848;-63
2023/07/11 01:09:30;;;;;;;;;;;;;;;17.98;100.00;99750.59;4992613;28;922;-64
2023/07/11 01:11:58;;;;;;;;;;;;;;;17.97;100.00;99741.44;4992622;28;1213;-64
2023/07/11 01:14:26;;;;;;;;;;;;;;;18.05;100.00;99750.34;4992663;28;913;-64
2023/07/11 01:16:53;;;;;;;;;;;;;;;18.09;100.00;99743.41;4992692;28;815;-64
2023/07/11 01:19:22;;;;;;;;;;;;;;;18.09;100.00;99742.59;4992564;28;1918;-64
2023/07/11 01:21:51;;;;;;;;;;;;;;;18.13;100.00;99735.63;4992623;28;942;-64
2023/07/11 01:24:18;;;;;;;;;;;;;;;18.20;100.00;99728.22;4992545;28;846;-64
2023/07/11 01:26:44;;;;;;;;;;;;;;;18.25;100.00;99734.00;4992456;28;862;-65
2023/07/11 01:29:12;;;;;;;;;;;;;;;18.29;100.00;99725.50;4992517;28;853;-64
2023/07/11 01:31:39;;;;;;;;;;;;;;;18.31;100.00;99723.78;4992226;28;898;-65
2023/07/11 01:34:07;;;;;;;;;;;;;;;18.28;100.00;99721.13;4992502;28;877;-63
2023/07/11 01:36:34;;;;;;;;;;;;;;;18.22;100.00;99726.53;4992657;28;838;-64
2023/07/11 01:39:01;;;;;;;;;;;;;;;18.21;100.00;99722.16;4991107;28;1943;-64
2023/07/11 01:41:28;;;;;;;;;;;;;;;18.28;100.00;99718.31;4992306;28;890;-64
2023/07/11 01:43:55;;;;;;;;;;;;;;;18.34;100.00;99719.28;4992440;28;838;-64
2023/07/11 01:46:21;;;;;;;;;;;;;;;18.62;100.00;99713.84;4992240;28;900;-64
2023/07/11 01:48:48;;;;;;;;;;;;;;;18.76;100.00;99714.03;4992609;28;905;-64
2023/07/11 01:51:16;;;;;;;;;;;;;;;19.03;100.00;99718.19;4992255;28;814;-64
2023/07/11 01:53:43;;;;;;;;;;;;;;;19.10;100.00;99728.34;4992250;28;821;-64
2023/07/11 01:56:10;;;;;;;;;;;;;;;19.12;100.00;99731.47;4992305;28;854;-64
2023/07/11 01:58:38;;;;;;;;;;;;;;;19.19;100.00;99731.16;4994407;28;1914;-64
2023/07/11 02:01:05;;;;;;;;;;;;;;;19.24;100.00;99736.13;4996106;28;838;-64
2023/07/11 02:03:33;;;;;;;;;;;;;;;19.34;100.00;99734.91;4996077;28;878;-64
2023/07/11 02:06:00;;;;;;;;;;;;;;;19.42;100.00;99735.41;4996015;28;1319;-64
2023/07/11 02:08:27;;;;;;;;;;;;;;;19.41;100.00;99747.84;4995980;28;831;-64
2023/07/11 02:10:54;;;;;;;;;;;;;;;19.44;100.00;99738.53;4996184;28;1220;-64
2023/07/11 02:13:21;;;;;;;;;;;;;;;19.50;100.00;99742.28;4996152;28;1222;-65
2023/07/11 02:15:48;;;;;;;;;;;;;;;19.59;100.00;99735.88;4996234;28;1205;-64
2023/07/11 02:18:15;;;;;;;;;;;;;;;19.71;100.00;99740.56;4995813;28;859;-65
2023/07/11 02:20:43;;;;;;;;;;;;;;;19.79;100.00;99725.00;4995809;28;1960;-64
2023/07/11 02:23:12;;;;;;;;;;;;;;;19.82;100.00;99733.72;4996041;28;817;-65
2023/07/11 02:25:39;;;;;;;;;;;;;;;19.81;100.00;99723.78;4995729;28;906;-64
2023/07/11 02:28:06;;;;;;;;;;;;;;;19.82;100.00;99719.72;4995812;28;925;-65
2023/07/11 02:30:33;;;;;;;;;;;;;;;19.83;100.00;99710.84;4995635;28;843;-64
2023/07/11 02:33:01;;;;;;;;;;;;;;;19.93;100.00;99714.41;4995612;28;999;-64
2023/07/11 02:35:29;;;;;;;;;;;;;;;20.13;100.00;99713.91;4995556;28;929;-64
2023/07/11 02:37:56;;;;;;;;;;;;;;;20.29;100.00;99715.56;4995550;28;854;-64
2023/07/11 02:40:23;;;;;;;;;;;;;;;20.39;100.00;99705.88;4995367;28;1945;-64
2023/07/11 02:42:51;;;;;;;;;;;;;;;20.46;100.00;99708.38;4995500;28;803;-65
2023/07/11 02:45:18;;;;;;;;;;;;;;;20.50;100.00;99716.59;4995301;28;832;-65
2023/07/11 02:47:45;;;;;;;;;;;;;;;20.48;100.00;99711.47;4994097;28;875;-65
2023/07/11 02:50:12;;;;;;;;;;;;;;;20.53;100.00;99716.44;4995225;28;835;-64
2023/07/11 02:52:39;;;;;;;;;;;;;;;20.57;100.00;99721.91;4995320;28;854;-64
2023/07/11 02:55:07;;;;;;;;;;;;;;;20.58;99.89;99712.25;4995062;28;869;-65
2023/07/11 02:57:36;;;;;;;;;;;;;;;20.56;99.44;99725.94;4995407;28;886;-64
2023/07/11 03:00:02;;;;;;;;;;;;;;;20.52;99.70;99725.34;4995038;28;1886;-65
2023/07/11 03:02:29;;;;;;;;;;;;;;;20.52;99.68;99728.91;4995073;28;901;-64
2023/07/11 03:04:56;;;;;;;;;;;;;;;20.56;99.36;99729.53;4995024;28;850;-64
2023/07/11 03:07:23;;;;;;;;;;;;;;;20.58;99.06;99727.06;4993619;28;1381;-65
2023/07/11 03:09:50;;;;;;;;;;;;;;;20.59;98.96;99723.00;4994214;28;892;-64
2023/07/11 03:12:17;;;;;;;;;;;;;;;20.65;98.47;99728.75;4994654;28;1202;-64
2023/07/11 03:14:45;;;;;;;;;;;;;;;20.72;97.58;99722.81;4994973;28;835;-64
2023/07/11 03:17:12;;;;;;;;;;;;;;;20.81;97.01;99721.97;4994714;28;864;-65
2023/07/11 03:19:38;;;;;;;;;;;;;;;20.94;95.71;99722.53;4994488;28;1918;-65
2023/07/11 03:22:04;;;;;;;;;;;;;;;20.99;95.29;99715.47;4994668;28;834;-65
2023/07/11 03:24:31;;;;;;;;;;;;;;;20.99;95.37;99713.47;4994594;28;787;-65
2023/07/11 03:26:58;;;;;;;;;;;;;;;20.95;95.53;99706.44;4994646;28;858;-65
2023/07/11 03:29:26;;;;;;;;;;;;;;;20.92;95.88;99715.84;4994531;28;870;-65
2023/07/11 03:31:53;;;;;;;;;;;;;;;20.89;96.18;99713.97;4994736;28;874;-65
2023/07/11 03:34:20;;;;;;;;;;;;;;;20.89;96.53;99714.78;4994482;28;862;-64
2023/07/11 03:36:47;;;;;;;;;;;;;;;20.92;96.75;99713.81;4994451;28;902;-65
2023/07/11 03:39:14;;;;;;;;;;;;;;;21.03;96.32;99718.91;4994246;28;1902;-65
2023/07/11 03:41:41;;;;;;;;;;;;;;;21.16;95.36;99722.25;4994428;28;921;-64
2023/07/11 03:44:09;;;;;;;;;;;;;;;21.31;94.82;99722.31;4994175;28;820;-65
2023/07/11 03:46:35;;;;;;;;;;;;;;;21.43;94.55;99712.13;4994256;28;849;-65
2023/07/11 03:49:02;;;;;;;;;;;;;;;21.53;94.48;99713.59;4994151;28;803;-65
2023/07/11 03:51:29;;;;;;;;;;;;;;;21.66;93.75;99718.97;4994148;28;951;-65
2023/07/11 03:53:57;;;;;;;;;;;;;;;21.82;93.21;99721.31;4993987;28;861;-64
2023/07/11 03:56:24;;;;;;;;;;;;;;;21.99;92.17;99715.25;4994046;28;882;-64
2023/07/11 03:58:51;;;;;;;;;;;;;;;22.15;91.19;99726.03;4993872;28;1953;-65
2023/07/11 04:01:19;;;;;;;;;;;;;;;22.26;90.55;99722.66;4993941;28;815;-64
2023/07/11 04:03:46;;;;;;;;;;;;;;;22.40;89.90;99721.09;4993920;28;882;-64
2023/07/11 04:06:13;;;;;;;;;;;;;;;22.48;89.70;99722.25;4993831;28;893;-65
2023/07/11 04:08:40;;;;;;;;;;;;;;;22.67;89.02;99733.31;4993841;28;885;-65
2023/07/11 04:11:07;;;;;;;;;;;;;;;22.90;87.84;99731.63;4993718;28;1235;-66
2023/07/11 04:13:34;;;;;;;;;;;;;;;23.03;87.44;99737.72;4993690;28;854;-65
2023/07/11 04:16:02;;;;;;;;;;;;;;;23.12;86.89;99737.59;4993595;28;826;-65
2023/07/11 04:18:29;;;;;;;;;;;;;;;23.18;86.63;99749.72;4993573;28;1979;-65
2023/07/11 04:20:56;;;;;;;;;;;;;;;23.22;85.48;99743.88;4993590;28;826;-65
2023/07/11 04:23:23;;;;;;;;;;;;;;;23.28;84.56;99747.56;4993483;28;902;-65
2023/07/11 04:25:50;;;;;;;;;;;;;;;23.35;84.46;99755.59;4993402;28;815;-66
2023/07/11 04:28:17;;;;;;;;;;;;;;;23.46;83.91;99757.78;4993501;28;823;-66
2023/07/11 04:30:44;;;;;;;;;;;;;;;23.55;83.01;99748.41;4993376;28;813;-66
2023/07/11 04:33:10;;;;;;;;;;;;;;;23.61;81.85;99752.84;4993312;28;869;-66
2023/07/11 04:35:37;;;;;;;;;;;;;;;23.63;80.17;99755.19;4993409;28;815;-65
2023/07/11 04:38:02;;;;;;;;;;;;;;;23.64;79.72;99753.91;4993260;28;863;-66
2023/07/11 04:40:29;;;;;;;;;;;;;;;23.67;79.51;99763.44;4993253;28;1886;-66
2023/07/11 04:42:57;;;;;;;;;;;;;;;23.73;79.24;99761.47;4993182;28;901;-65
2023/07/11 04:45:24;;;;;;;;;;;;;;;23.77;78.79;99757.19;4993134;28;847;-67
2023/07/11 04:47:51;;;;;;;;;;;;;;;23.88;78.58;99755.78;4993134;28;922;-67
2023/07/11 04:50:19;;;;;;;;;;;;;;;23.94;77.69;99750.94;4993063;28;819;-67
2023/07/11 04:52:46;;;;;;;;;;;;;;;24.01;77.33;99756.94;4993207;28;826;-66
2023/07/11 04:55:14;;;;;;;;;;;;;;;24.14;77.02;99762.19;4992997;28;853;-66
2023/07/11 04:57:41;;;;;;;;;;;;;;;24.23;76.31;99759.19;4992970;28;822;-67
2023/07/11 05:00:08;;;;;;;;;;;;;;;24.31;75.17;99761.59;4992802;28;1971;-67
2023/07/11 05:02:35;;;;;;;;;;;;;;;24.43;74.61;99761.19;4992868;28;851;-67
2023/07/11 05:05:03;;;;;;;;;;;;;;;24.56;73.64;99763.66;4993143;28;862;-66
2023/07/11 05:07:30;;;;;;;;;;;;;;;24.69;73.26;99759.63;4992915;28;850;-67
2023/07/11 05:09:57;;;;;;;;;;;;;;;24.80;72.26;99756.91;4993018;28;963;-67
2023/07/11 05:12:23;;;;;;;;;;;;;;;24.88;71.88;99751.53;4992634;28;1234;-67
2023/07/11 05:14:50;;;;;;;;;;;;;;;25.02;71.33;99759.88;4992738;28;866;-66
2023/07/11 05:17:18;;;;;;;;;;;;;;;25.23;70.95;99752.06;4992878;28;893;-66
2023/07/11 05:19:45;;;;;;;;;;;;;;;25.39;70.18;99767.59;4992789;28;1906;-66
2023/07/11 05:22:12;;;;;;;;;;;;;;;25.52;69.47;99755.00;4992585;28;830;-66
2023/07/11 05:24:39;;;;;;;;;;;;;;;25.77;68.79;99768.25;4992609;28;909;-67
2023/07/11 05:27:06;;;;;;;;;;;;;;;25.95;67.39;99758.56;4992518;28;822;-67
2023/07/11 05:29:35;;;;;;;;;;;;;;;26.18;66.52;99765.06;4992530;28;874;-68
2023/07/11 05:32:00;;;;;;;;;;;;;;;26.48;65.86;99764.56;4991174;28;1186;-67
2023/07/11 05:34:28;;;;;;;;;;;;;;;26.94;63.89;99760.44;4992130;28;843;-67
2023/07/11 05:36:54;;;;;;;;;;;;;;;27.18;61.85;99765.53;4992541;28;878;-67
2023/07/11 05:39:21;;;;;;;;;;;;;;;27.36;61.48;99760.66;4992634;28;1943;-67
2023/07/11 05:41:50;;;;;;;;;;;;;;;27.50;59.38;99759.56;4992524;28;862;-67
2023/07/11 05:44:17;;;;;;;;;;;;;;;27.70;57.95;99769.81;4992684;28;898;-66
2023/07/11 05:46:45;;;;;;;;;;;;;;;27.88;56.80;99772.06;4992305;28;918;-67
2023/07/11 05:49:12;;;;;;;;;;;;;;;28.08;56.46;99770.16;4992431;28;874;-71
2023/07/11 05:51:39;;;;;;;;;;;;;;;28.43;56.63;99765.78;4992241;28;857;-70
2023/07/11 05:54:06;;;;;;;;;;;;;;;28.62;55.12;99768.78;4992303;28;851;-68
2023/07/11 05:56:34;;;;;;;;;;;;;;;28.81;54.62;99772.47;4992278;28;827;-67
2023/07/11 05:59:01;;;;;;;;;;;;;;;29.07;53.89;99769.13;4992479;28;1890;-68
2023/07/11 06:01:28;;;;;;;;;;;;;;;29.28;52.27;99775.16;4992715;28;819;-67
2023/07/11 06:04:06;;;;;;;;;;;;;;;29.71;50.92;99777.25;4992137;28;803;-67
2023/07/11 06:06:35;;;;;;;;;;;;;;;30.04;49.82;99771.63;4992273;28;819;-68
2023/07/11 06:09:02;;;;;;;;;;;;;;;30.41;48.41;99765.16;4992231;28;874;-68
2023/07/11 06:11:29;;;;;;;;;;;;;;;30.92;46.66;99761.50;4992260;28;1372;-69
2023/07/11 06:13:56;;;;;;;;;;;;;;;31.41;45.86;99763.94;4992121;28;878;-67
2023/07/11 06:16:23;;;;;;;;;;;;;;;31.90;44.08;99763.44;4992183;28;882;-70
2023/07/11 06:18:52;;;;;;;;;;;;;;;32.39;41.54;99764.97;4992081;28;1914;-68
2023/07/11 06:21:19;;;;;;;;;;;;;;;32.74;40.10;99760.72;4992114;28;838;-69
2023/07/11 06:23:47;;;;;;;;;;;;;;;33.41;38.91;99762.34;4992052;28;853;-72
2023/07/11 06:26:14;;;;;;;;;;;;;;;33.56;37.51;99765.28;4992232;28;832;-69
2023/07/11 06:28:42;;;;;;;;;;;;;;;33.49;37.38;99761.03;4992292;28;871;-68
2023/07/11 06:31:10;;;;;;;;;;;;;;;34.12;37.02;99768.63;4992002;28;831;-68
2023/07/11 06:33:36;;;;;;;;;;;;;;;34.50;35.79;99762.19;4992077;28;823;-68
2023/07/11 06:36:05;;;;;;;;;;;;;;;34.73;34.84;99767.97;4991948;28;851;-67
2023/07/11 06:38:32;;;;;;;;;;;;;;;34.87;34.42;99765.69;4991928;28;1890;-67
2023/07/11 06:41:00;;;;;;;;;;;;;;;34.63;33.62;99767.78;4991863;28;839;-68
2023/07/11 06:43:26;;;;;;;;;;;;;;;34.11;34.45;99767.06;4992016;28;842;-68
2023/07/11 06:45:55;;;;;;;;;;;;;;;33.94;35.24;99765.47;4994060;28;839;-68
2023/07/11 06:48:22;;;;;;;;;;;;;;;34.51;35.11;99760.84;4995380;28;866;-68
2023/07/11 06:50:53;;;;;;;;;;;;;;;34.98;33.96;99763.16;4995284;28;869;-67
2023/07/11 06:53:20;;;;;;;;;;;;;;;35.25;33.61;99759.13;4995212;28;893;-67
2023/07/11 06:55:47;;;;;;;;;;;;;;;35.42;33.64;99758.50;4995141;28;831;-67
2023/07/11 06:58:14;;;;;;;;;;;;;;;35.61;32.96;99744.44;4995170;28;909;-67
2023/07/11 07:00:42;;;;;;;;;;;;;;;35.62;32.61;99748.13;4993823;28;1890;-69
2023/07/11 07:03:10;;;;;;;;;;;;;;;35.85;32.68;99750.88;4994978;28;1267;-67
2023/07/11 07:05:37;;;;;;;;;;;;;;;35.85;31.39;99748.00;4994065;28;1216;-67
2023/07/11 07:08:05;;;;;;;;;;;;;;;35.41;31.06;99751.25;4995439;28;898;-68
2023/07/11 07:10:32;;;;;;;;;;;;;;;34.99;31.34;99758.19;4995307;28;877;-67
2023/07/11 07:12:58;;;;;;;;;;;;;;;34.84;30.91;99758.19;4994976;28;1261;-68
2023/07/11 07:15:26;;;;;;;;;;;;;;;35.15;31.26;99759.72;4995051;28;898;-68
2023/07/11 07:17:52;;;;;;;;;;;;;;;35.37;31.49;99757.38;4995114;28;845;-68
2023/07/11 07:20:19;;;;;;;;;;;;;;;35.71;30.86;99744.66;4994880;28;1914;-68
2023/07/11 07:22:47;;;;;;;;;;;;;;;35.96;30.69;99751.22;4994806;28;858;-69
2023/07/11 07:25:13;;;;;;;;;;;;;;;35.85;31.08;99750.88;4994994;28;814;-68
2023/07/11 07:27:40;;;;;;;;;;;;;;;35.84;31.10;99755.88;4994797;28;792;-68
2023/07/11 07:30:10;;;;;;;;;;;;;;;36.02;31.02;99751.00;4994811;28;902;-68
2023/07/11 07:32:37;;;;;;;;;;;;;;;36.04;30.56;99761.91;4994729;28;898;-68
2023/07/11 07:35:04;;;;;;;;;;;;;;;36.47;30.37;99762.84;4994547;28;819;-67
2023/07/11 07:37:31;;;;;;;;;;;;;;;36.34;29.22;99763.88;4994448;28;815;-68
2023/07/11 07:39:57;;;;;;;;;;;;;;;36.14;29.63;99754.22;4994336;28;1901;-68
2023/07/11 07:42:24;;;;;;;;;;;;;;;36.41;29.54;99757.31;4994367;28;858;-68
2023/07/11 07:44:51;;;;;;;;;;;;;;;36.86;28.41;99755.44;4994292;28;855;-71
2023/07/11 07:47:19;;;;;;;;;;;;;;;35.62;29.76;99753.84;4994343;28;831;-68
2023/07/11 07:49:46;;;;;;;;;;;;;;;34.64;30.56;99760.69;4994135;28;831;-68
2023/07/11 07:52:13;;;;;;;;;;;;;;;35.55;30.78;99752.53;4994202;28;967;-69
2023/07/11 07:54:40;;;;;;;;;;;;;;;35.58;30.84;99751.38;4994099;28;919;-69
2023/07/11 07:57:07;;;;;;;;;;;;;;;35.74;30.55;99741.38;4993816;28;851;-71
2023/07/11 07:59:35;;;;;;;;;;;;;;;35.40;30.28;99744.75;4994086;28;1894;-72
2023/07/11 08:02:01;;;;;;;;;;;;;;;34.71;30.75;99751.31;4994028;28;926;-69
2023/07/11 08:04:30;;;;;;;;;;;;;;;35.67;30.06;99745.03;4994143;28;910;-69
2023/07/11 08:06:56;;;;;;;;;;;;;;;36.24;29.07;99742.84;4993888;28;799;-68
2023/07/11 08:09:25;;;;;;;;;;;;;;;35.20;29.92;99748.63;4993677;28;919;-68
2023/07/11 08:11:52;;;;;;;;;;;;;;;33.80;30.91;99752.63;4993642;28;1278;-68
2023/07/11 08:14:18;;;;;;;;;;;;;;;32.92;31.90;99747.50;4993751;28;818;-67
2023/07/11 08:16:45;;;;;;;;;;;;;;;32.66;32.59;99748.44;4993998;28;819;-68
2023/07/11 08:19:13;;;;;;;;;;;;;;;33.28;31.79;99743.16;4993536;28;1973;-68
2023/07/11 08:21:39;;;;;;;;;;;;;;;34.91;30.10;99746.72;4993552;28;893;-67
2023/07/11 08:24:07;;;;;;;;;;;;;;;36.34;28.35;99738.75;4993571;28;839;-67
2023/07/11 08:26:34;;;;;;;;;;;;;;;37.45;27.31;99738.72;4993550;28;886;-67
2023/07/11 08:29:00;;;;;;;;;;;;;;;38.34;26.31;99739.47;4992185;28;1226;-68
2023/07/11 08:31:27;;;;;;;;;;;;;;;38.70;25.97;99740.84;4993399;28;971;-69
2023/07/11 08:33:54;;;;;;;;;;;;;;;38.10;25.72;99738.31;4993444;28;838;-68
2023/07/11 08:36:21;;;;;;;;;;;;;;;37.43;26.25;99741.44;4993397;28;842;-70
2023/07/11 08:38:47;;;;;;;;;;;;;;;37.17;26.89;99741.53;4993468;28;1894;-70
2023/07/11 08:41:27;;;;;;;;;;;;;;;37.50;26.51;99734.81;4993124;28;831;-68
2023/07/11 08:43:57;;;;;;;;;;;;;;;38.28;25.33;99733.25;4993218;28;846;-67
2023/07/11 08:46:26;;;;;;;;;;;;;;;38.11;25.23;99733.28;4993311;28;1225;-66
2023/07/11 08:48:57;;;;;;;;;;;;;;;37.49;25.88;99719.66;4991720;28;1197;-69
2023/07/11 08:51:29;;;;;;;;;;;;;;;37.02;27.53;99732.25;4993116;28;812;-70
2023/07/11 08:54:03;;;;;;;;;;;;;;;37.04;26.61;99735.28;4993264;28;926;-69
2023/07/11 08:56:30;;;;;;;;;;;;;;;37.29;26.67;99727.38;4993025;28;909;-70
2023/07/11 08:58:58;;;;;;;;;;;;;;;38.29;25.86;99731.09;4992944;28;1894;-70
2023/07/11 09:01:25;;;;;;;;;;;;;;;38.80;25.60;99730.09;4993001;28;867;-69
2023/07/11 09:03:51;;;;;;;;;;;;;;;39.04;24.38;99727.56;4992859;28;815;-69
2023/07/11 09:06:23;;;;;;;;;;;;;;;38.98;24.56;99724.97;4992960;28;874;-68
2023/07/11 09:08:54;;;;;;;;;;;;;;;39.12;24.06;99712.97;4992539;28;818;-70
2023/07/11 09:11:42;;;;;;;;;;;;;;;39.13;24.51;99720.28;4992880;28;1443;-70
2023/07/11 09:14:26;;;;;;;;;;;;;;;39.18;24.38;99722.88;4992856;28;905;-70
2023/07/11 09:47:59;;;;;;;;;;;;;;;37.18;27.25;99708.47;5149638;23;2044;-71
2023/07/11 09:50:32;;;;;;;;;;;;;;;37.34;27.21;99711.97;4971771;28;1052;-73
2023/07/11 09:53:01;;;;;;;;;;;;;;;37.54;26.58;99707.09;4988455;28;1196;-73
2023/07/11 09:55:34;;;;;;;;;;;;;;;37.45;26.99;99704.91;4973313;28;878;-71
2023/07/11 09:58:02;;;;;;;;;;;;;;;36.35;27.66;99702.88;4973093;28;882;-73
2023/07/11 10:00:29;;;;;;;;;;;;;;;36.38;27.74;99700.91;4973224;28;1906;-72
2023/07/11 10:02:58;;;;;;;;;;;;;;;36.66;28.04;99701.88;4973439;28;858;-73
2023/07/11 10:05:25;;;;;;;;;;;;;;;36.73;28.10;99703.94;4973562;28;842;-74
2023/07/11 10:08:13;;;;;;;;;;;;;;;36.80;27.84;99694.44;4973660;28;827;-72
2023/07/11 10:10:50;;;;;;;;;;;;;;;36.46;27.87;99695.88;4973376;28;866;-70
2023/07/11 10:13:18;;;;;;;;;;;;;;;36.17;27.62;99686.91;4973159;28;814;-71
2023/07/11 10:15:48;;;;;;;;;;;;;;;36.35;27.66;99691.34;4972922;28;839;-71
2023/07/11 10:18:23;;;;;;;;;;;;;;;36.98;26.55;99687.34;4972941;28;869;-72
2023/07/11 10:21:12;;;;;;;;;;;;;;;37.13;26.51;99682.81;4976748;28;1883;-71
2023/07/11 10:23:41;;;;;;;;;;;;;;;36.52;27.66;99684.13;4975662;28;1176;-71
2023/07/11 10:26:11;;;;;;;;;;;;;;;36.52;27.35;99681.25;4976282;28;891;-71
2023/07/11 10:28:43;;;;;;;;;;;;;;;37.06;26.36;99672.84;4976578;28;823;-72
2023/07/11 10:31:12;;;;;;;;;;;;;;;37.15;26.23;99659.91;4976729;28;830;-71
2023/07/11 10:33:50;;;;;;;;;;;;;;;37.75;26.85;99663.41;4978108;28;893;-74
2023/07/11 10:36:30;;;;;;;;;;;;;;;38.04;26.48;99662.06;4977525;28;957;-75
2023/07/11 10:39:04;;;;;;;;;;;;;;;37.74;26.76;99666.88;4976806;28;1906;-73
2023/07/11 10:41:33;;;;;;;;;;;;;;;37.91;26.74;99663.19;4976596;28;959;-72
2023/07/11 10:44:01;;;;;;;;;;;;;;;37.56;27.67;99658.28;4976150;28;897;-69
2023/07/11 10:46:37;;;;;;;;;;;;;;;37.57;27.84;99662.69;4976280;28;985;-71
2023/07/11 10:49:09;;;;;;;;;;;;;;;36.70;28.14;99665.56;4974401;28;1225;-72
2023/07/11 10:51:39;;;;;;;;;;;;;;;36.72;27.78;99665.75;4976266;28;1160;-72
2023/07/11 10:54:07;;;;;;;;;;;;;;;37.45;27.11;99661.69;4976035;28;823;-69
2023/07/11 10:56:39;;;;;;;;;;;;;;;38.15;26.00;99658.59;4976206;28;842;-73
2023/07/11 10:59:11;;;;;;;;;;;;;;;38.57;25.65;99655.41;4975940;28;1914;-73
2023/07/11 11:02:10;;;;;;;;;;;;;;;38.66;25.97;99650.25;4976698;28;966;-72
2023/07/11 11:04:45;;;;;;;;;;;;;;;38.32;25.55;99643.31;4944114;28;1369;-74
2023/07/11 11:07:22;;;;;;;;;;;;;;;38.54;25.35;99642.19;4976146;28;882;-72
2023/07/11 11:10:18;;;;;;;;;;;;;;;38.27;25.71;99648.00;4976580;28;1284;-74
2023/07/11 11:13:00;;;;;;;;;;;;;;;37.59;24.91;99639.03;4916490;29;1207;-73
2023/07/11 11:15:42;;;;;;;;;;;;;;;36.56;25.66;99638.44;4916155;29;967;-70
2023/07/11 11:18:18;;;;;;;;;;;;;;;35.76;25.75;99645.91;4916091;29;844;-72
2023/07/11 11:20:54;;;;;;;;;;;;;;;35.70;25.43;99646.16;4915848;29;1887;-72
2023/07/11 11:23:39;;;;;;;;;;;;;;;36.06;24.57;99638.44;4916111;29;1020;-71
2023/07/11 11:26:06;;;;;;;;;;;;;;;36.67;24.73;99640.84;4915987;29;841;-73
2023/07/11 11:28:33;;;;;;;;;;;;;;;37.17;23.88;99643.59;4915955;29;926;-73
2023/07/11 11:31:19;;;;;;;;;;;;;;;37.39;23.71;99638.13;4915548;29;870;-70
2023/07/11 11:33:45;;;;;;;;;;;;;;;37.87;23.73;99631.88;4915651;29;827;-71
2023/07/11 11:36:25;;;;;;;;;;;;;;;38.55;22.70;99632.16;4915739;29;1054;-74
2023/07/11 11:39:07;;;;;;;;;;;;;;;38.50;22.57;99623.81;4915915;29;1868;-73
2023/07/11 11:41:44;;;;;;;;;;;;;;;38.02;23.46;99635.91;4915734;29;921;-71
2023/07/11 11:44:21;;;;;;;;;;;;;;;37.94;23.84;99631.03;4915516;29;910;-74
2023/07/11 11:46:48;;;;;;;;;;;;;;;38.39;24.39;99634.53;4915582;29;1337;-73
2023/07/11 11:49:15;;;;;;;;;;;;;;;38.91;24.09;99626.88;4948534;28;1509;-73
2023/07/11 11:51:43;;;;;;;;;;;;;;;39.38;23.35;99627.47;4975176;28;858;-74
2023/07/11 11:54:12;;;;;;;;;;;;;;;39.11;22.23;99624.75;4975105;28;778;-71
2023/07/11 11:56:44;;;;;;;;;;;;;;;38.92;22.22;99634.16;4974802;28;842;-72
2023/07/11 12:11:30;;;;;;;;;;;;;;;39.77;22.22;99615.81;4993962;28;621;-72
2023/07/11 12:14:15;;;;;;;;;;;;;;;39.60;22.58;99606.00;4993988;28;791;-71
2023/07/11 12:16:46;;;;;;;;;;;;;;;39.19;22.30;99605.91;4993810;28;912;-69
2023/07/11 12:19:33;;;;;;;;;;;;;;;38.94;22.57;99612.00;4993879;28;1902;-72
2023/07/11 12:22:03;;;;;;;;;;;;;;;38.98;22.45;99609.41;4993943;28;815;-72
2023/07/11 12:24:36;;;;;;;;;;;;;;;38.98;22.62;99605.78;4992548;28;1360;-73
2023/07/11 12:27:29;;;;;;;;;;;;;;;39.29;23.19;99597.22;4993649;28;845;-74
2023/07/11 12:29:55;;;;;;;;;;;;;;;38.71;24.23;99609.56;4991208;28;1173;-71
2023/07/11 12:32:34;;;;;;;;;;;;;;;38.78;24.28;99605.00;4993630;28;866;-69
2023/07/11 12:35:04;;;;;;;;;;;;;;;37.72;25.31;99592.50;4993636;28;830;-73
2023/07/11 12:37:49;;;;;;;;;;;;;;;36.54;27.30;99595.84;4993769;28;826;-72
2023/07/11 12:40:16;;;;;;;;;;;;;;;37.44;26.93;99599.63;4993473;28;1894;-71
2023/07/11 12:42:53;;;;;;;;;;;;;;;38.07;24.68;99597.38;4992471;28;819;-71
2023/07/11 12:45:21;;;;;;;;;;;;;;;36.53;25.16;99590.66;4992778;28;1331;-70
2023/07/11 12:47:53;;;;;;;;;;;;;;;36.93;25.44;99586.81;4994901;28;1373;-70
2023/07/11 12:50:22;;;;;;;;;;;;;;;37.90;24.66;99578.78;4993529;28;831;-72
2023/07/11 12:53:02;;;;;;;;;;;;;;;38.45;23.85;99588.03;4993265;28;949;-69
2023/07/11 12:55:29;;;;;;;;;;;;;;;38.98;23.42;99597.09;4993236;28;910;-69
2023/07/11 12:57:57;;;;;;;;;;;;;;;38.64;23.51;99589.47;4993189;28;799;-74
2023/07/11 13:00:26;;;;;;;;;;;;;;;38.08;23.13;99584.50;4993156;28;1979;-70
2023/07/11 13:03:00;;;;;;;;;;;;;;;37.81;23.99;99582.38;4993056;28;858;-70
2023/07/11 13:05:27;;;;;;;;;;;;;;;37.54;23.52;99580.25;4993812;28;825;-71
2023/07/11 13:07:54;;;;;;;;;;;;;;;37.37;24.03;99578.19;4993014;28;835;-71
2023/07/11 13:10:24;;;;;;;;;;;;;;;37.52;24.41;99576.47;4992929;28;830;-73
2023/07/11 13:12:54;;;;;;;;;;;;;;;37.46;25.01;99567.31;4992952;28;810;-71
2023/07/11 13:15:25;;;;;;;;;;;;;;;37.02;25.07;99565.94;4992848;28;802;-69
2023/07/11 13:17:53;;;;;;;;;;;;;;;37.48;25.52;99570.38;4992849;28;835;-69
2023/07/11 13:20:25;;;;;;;;;;;;;;;37.14;25.56;99566.22;4992831;28;1957;-72
2023/07/11 13:22:51;;;;;;;;;;;;;;;36.99;26.02;99564.28;4993094;28;843;-70
2023/07/11 13:25:22;;;;;;;;;;;;;;;37.50;26.22;99565.53;4992714;28;873;-73
2023/07/11 13:27:48;;;;;;;;;;;;;;;38.05;25.45;99562.63;4993036;28;980;-71
2023/07/11 13:30:19;;;;;;;;;;;;;;;37.95;24.47;99548.88;4992834;28;819;-72
2023/07/11 13:32:51;;;;;;;;;;;;;;;37.57;24.81;99566.81;4992686;28;807;-72
2023/07/11 13:35:18;;;;;;;;;;;;;;;37.45;24.56;99563.69;4991532;28;901;-71
2023/07/11 13:37:45;;;;;;;;;;;;;;;37.13;24.63;99570.47;4992707;28;831;-70
2023/07/11 13:40:29;;;;;;;;;;;;;;;37.01;25.35;99567.31;4992624;28;1955;-71
2023/07/11 13:42:56;;;;;;;;;;;;;;;37.00;25.49;99568.69;4992766;28;861;-71
2023/07/11 13:45:25;;;;;;;;;;;;;;;36.96;25.62;99574.88;4992572;28;1005;-71
2023/07/11 13:47:52;;;;;;;;;;;;;;;36.92;26.14;99570.91;4992394;28;1231;-70
2023/07/11 13:50:29;;;;;;;;;;;;;;;37.24;25.37;99572.06;4991226;28;914;-69
2023/07/11 13:53:01;;;;;;;;;;;;;;;37.34;24.65;99562.13;4992705;28;799;-70
2023/07/11 13:55:27;;;;;;;;;;;;;;;37.26;24.91;99572.22;4996412;28;814;-73